sensor_id;sensor_type;location;lat;lon;timestamp;P1;durP1;ratioP1;P2;durP2;ratioP2
75941;SDS011;64622;46.220;19.878;2023-07-29T00:00:11;9.45;;;3.30;;
75941;SDS011;64622;46.220;19.878;2023-07-29T00:02:39;10.63;;;3.22;;
75941;SDS011;64622;46.220;19.878;2023-07-29T00:05:06;8.47;;;3.23;;
75941;SDS011;64622;46.220;19.878;2023-07-29T00:07:32;10.43;;;3.30;;
75941;SDS011;64622;46.220;19.878;2023-07-29T00:09:59;9.27;;;3.47;;
75941;SDS011;64622;46.220;19.878;2023-07-29T00:12:25;10.60;;;3.97;;
75941;SDS011;64622;46.220;19.878;2023-07-29T00:14:52;10.07;;;3.33;;
75941;SDS011;64622;46.220;19.878;2023-07-29T00:17:18;10.53;;;3.80;;
75941;SDS011;64622;46.220;19.878;2023-07-29T00:19:46;8.98;;;3.55;;
75941;SDS011;64622;46.220;19.878;2023-07-29T00:22:13;10.05;;;3.78;;
75941;SDS011;64622;46.220;19.878;2023-07-29T00:24:40;9.52;;;3.50;;
75941;SDS011;64622;46.220;19.878;2023-07-29T00:27:07;9.63;;;3.95;;
75941;SDS011;64622;46.220;19.878;2023-07-29T00:29:34;10.50;;;4.00;;
75941;SDS011;64622;46.220;19.878;2023-07-29T00:32:01;10.50;;;3.85;;
75941;SDS011;64622;46.220;19.878;2023-07-29T00:34:27;11.40;;;3.85;;
75941;SDS011;64622;46.220;19.878;2023-07-29T00:36:54;9.75;;;3.72;;
75941;SDS011;64622;46.220;19.878;2023-07-29T00:39:21;12.05;;;4.25;;
75941;SDS011;64622;46.220;19.878;2023-07-29T00:41:49;9.97;;;3.73;;
75941;SDS011;64622;46.220;19.878;2023-07-29T00:44:16;7.90;;;3.55;;
75941;SDS011;64622;46.220;19.878;2023-07-29T00:46:42;12.57;;;3.90;;
75941;SDS011;64622;46.220;19.878;2023-07-29T00:49:12;8.73;;;3.33;;
75941;SDS011;64622;46.220;19.878;2023-07-29T00:51:40;12.52;;;3.92;;
75941;SDS011;64622;46.220;19.878;2023-07-29T00:54:07;12.80;;;3.83;;
75941;SDS011;64622;46.220;19.878;2023-07-29T00:56:34;9.60;;;3.65;;
75941;SDS011;64622;46.220;19.878;2023-07-29T00:59:01;10.95;;;3.53;;
75941;SDS011;64622;46.220;19.878;2023-07-29T01:01:28;8.77;;;3.53;;
75941;SDS011;64622;46.220;19.878;2023-07-29T01:03:56;10.10;;;3.50;;
75941;SDS011;64622;46.220;19.878;2023-07-29T01:09:09;11.27;;;3.83;;
75941;SDS011;64622;46.220;19.878;2023-07-29T01:14:29;10.02;;;3.50;;
75941;SDS011;64622;46.220;19.878;2023-07-29T01:17:02;10.20;;;3.47;;
75941;SDS011;64622;46.220;19.878;2023-07-29T01:19:42;9.93;;;3.37;;
75941;SDS011;64622;46.220;19.878;2023-07-29T01:22:14;10.40;;;3.25;;
75941;SDS011;64622;46.220;19.878;2023-07-29T01:24:43;10.27;;;3.30;;
75941;SDS011;64622;46.220;19.878;2023-07-29T01:27:10;9.43;;;3.30;;
75941;SDS011;64622;46.220;19.878;2023-07-29T01:29:37;11.30;;;3.10;;
75941;SDS011;64622;46.220;19.878;2023-07-29T01:32:07;8.53;;;3.33;;
75941;SDS011;64622;46.220;19.878;2023-07-29T01:34:45;8.25;;;3.10;;
75941;SDS011;64622;46.220;19.878;2023-07-29T01:37:19;8.98;;;3.22;;
75941;SDS011;64622;46.220;19.878;2023-07-29T01:39:49;9.10;;;3.33;;
75941;SDS011;64622;46.220;19.878;2023-07-29T01:42:17;8.65;;;3.47;;
75941;SDS011;64622;46.220;19.878;2023-07-29T01:44:44;9.37;;;3.00;;
75941;SDS011;64622;46.220;19.878;2023-07-29T01:47:10;11.20;;;3.55;;
75941;SDS011;64622;46.220;19.878;2023-07-29T01:49:38;8.43;;;3.40;;
75941;SDS011;64622;46.220;19.878;2023-07-29T01:52:04;8.73;;;3.50;;
75941;SDS011;64622;46.220;19.878;2023-07-29T01:54:31;9.75;;;3.15;;
75941;SDS011;64622;46.220;19.878;2023-07-29T01:56:59;10.87;;;3.80;;
75941;SDS011;64622;46.220;19.878;2023-07-29T01:59:26;10.60;;;3.75;;
75941;SDS011;64622;46.220;19.878;2023-07-29T02:01:53;9.75;;;3.97;;
75941;SDS011;64622;46.220;19.878;2023-07-29T02:04:20;10.05;;;3.65;;
75941;SDS011;64622;46.220;19.878;2023-07-29T02:06:46;9.88;;;3.80;;
75941;SDS011;64622;46.220;19.878;2023-07-29T02:09:13;9.60;;;3.63;;
75941;SDS011;64622;46.220;19.878;2023-07-29T02:11:40;9.30;;;3.33;;
75941;SDS011;64622;46.220;19.878;2023-07-29T02:14:06;8.95;;;3.72;;
75941;SDS011;64622;46.220;19.878;2023-07-29T02:16:33;11.30;;;4.05;;
75941;SDS011;64622;46.220;19.878;2023-07-29T02:19:00;12.50;;;3.87;;
75941;SDS011;64622;46.220;19.878;2023-07-29T02:21:27;12.57;;;3.57;;
75941;SDS011;64622;46.220;19.878;2023-07-29T02:23:54;7.90;;;3.22;;
75941;SDS011;64622;46.220;19.878;2023-07-29T02:26:20;15.13;;;4.28;;
75941;SDS011;64622;46.220;19.878;2023-07-29T02:28:47;15.43;;;4.53;;
75941;SDS011;64622;46.220;19.878;2023-07-29T02:31:21;12.55;;;3.55;;
75941;SDS011;64622;46.220;19.878;2023-07-29T02:33:50;10.30;;;3.80;;
75941;SDS011;64622;46.220;19.878;2023-07-29T02:36:17;8.05;;;3.42;;
75941;SDS011;64622;46.220;19.878;2023-07-29T02:38:44;8.45;;;3.67;;
75941;SDS011;64622;46.220;19.878;2023-07-29T02:41:12;10.48;;;3.83;;
75941;SDS011;64622;46.220;19.878;2023-07-29T02:43:39;12.15;;;4.55;;
75941;SDS011;64622;46.220;19.878;2023-07-29T02:46:07;10.33;;;3.60;;
75941;SDS011;64622;46.220;19.878;2023-07-29T02:48:34;9.05;;;3.50;;
75941;SDS011;64622;46.220;19.878;2023-07-29T02:51:01;11.20;;;3.62;;
75941;SDS011;64622;46.220;19.878;2023-07-29T02:53:27;16.10;;;4.22;;
75941;SDS011;64622;46.220;19.878;2023-07-29T02:55:54;10.43;;;3.62;;
75941;SDS011;64622;46.220;19.878;2023-07-29T02:58:21;9.83;;;3.80;;
75941;SDS011;64622;46.220;19.878;2023-07-29T03:00:47;11.35;;;3.67;;
75941;SDS011;64622;46.220;19.878;2023-07-29T03:03:15;10.70;;;3.85;;
75941;SDS011;64622;46.220;19.878;2023-07-29T03:05:42;10.10;;;3.78;;
75941;SDS011;64622;46.220;19.878;2023-07-29T03:08:09;9.43;;;4.00;;
75941;SDS011;64622;46.220;19.878;2023-07-29T03:10:36;13.87;;;3.90;;
75941;SDS011;64622;46.220;19.878;2023-07-29T03:13:02;9.93;;;3.78;;
75941;SDS011;64622;46.220;19.878;2023-07-29T03:15:29;9.50;;;3.75;;
75941;SDS011;64622;46.220;19.878;2023-07-29T03:17:56;13.75;;;4.28;;
75941;SDS011;64622;46.220;19.878;2023-07-29T03:20:23;13.65;;;4.15;;
75941;SDS011;64622;46.220;19.878;2023-07-29T03:22:49;10.30;;;4.10;;
75941;SDS011;64622;46.220;19.878;2023-07-29T03:25:16;13.68;;;4.43;;
75941;SDS011;64622;46.220;19.878;2023-07-29T03:27:43;10.57;;;4.10;;
75941;SDS011;64622;46.220;19.878;2023-07-29T03:30:09;10.98;;;3.95;;
75941;SDS011;64622;46.220;19.878;2023-07-29T03:32:39;14.70;;;3.87;;
75941;SDS011;64622;46.220;19.878;2023-07-29T03:35:09;13.03;;;4.03;;
75941;SDS011;64622;46.220;19.878;2023-07-29T03:37:36;11.40;;;4.40;;
75941;SDS011;64622;46.220;19.878;2023-07-29T03:40:03;11.43;;;4.05;;
75941;SDS011;64622;46.220;19.878;2023-07-29T03:42:31;15.20;;;3.85;;
75941;SDS011;64622;46.220;19.878;2023-07-29T03:44:58;11.20;;;3.85;;
75941;SDS011;64622;46.220;19.878;2023-07-29T03:47:25;12.77;;;3.97;;
75941;SDS011;64622;46.220;19.878;2023-07-29T03:49:52;11.88;;;4.12;;
75941;SDS011;64622;46.220;19.878;2023-07-29T03:52:19;8.68;;;3.60;;
75941;SDS011;64622;46.220;19.878;2023-07-29T03:54:46;11.15;;;3.87;;
75941;SDS011;64622;46.220;19.878;2023-07-29T03:57:12;10.27;;;3.87;;
75941;SDS011;64622;46.220;19.878;2023-07-29T03:59:39;14.27;;;10.03;;
75941;SDS011;64622;46.220;19.878;2023-07-29T04:02:06;13.95;;;4.00;;
75941;SDS011;64622;46.220;19.878;2023-07-29T04:04:32;11.93;;;4.32;;
75941;SDS011;64622;46.220;19.878;2023-07-29T04:07:00;10.18;;;3.90;;
75941;SDS011;64622;46.220;19.878;2023-07-29T04:09:26;9.52;;;3.50;;
75941;SDS011;64622;46.220;19.878;2023-07-29T04:11:53;12.03;;;3.60;;
75941;SDS011;64622;46.220;19.878;2023-07-29T04:14:20;9.15;;;3.40;;
75941;SDS011;64622;46.220;19.878;2023-07-29T04:16:46;8.70;;;3.33;;
75941;SDS011;64622;46.220;19.878;2023-07-29T04:19:15;9.23;;;3.00;;
75941;SDS011;64622;46.220;19.878;2023-07-29T04:21:42;8.75;;;3.20;;
75941;SDS011;64622;46.220;19.878;2023-07-29T04:24:08;8.60;;;3.00;;
75941;SDS011;64622;46.220;19.878;2023-07-29T04:26:35;9.48;;;3.25;;
75941;SDS011;64622;46.220;19.878;2023-07-29T04:29:01;7.95;;;3.08;;
75941;SDS011;64622;46.220;19.878;2023-07-29T04:31:29;10.15;;;2.72;;
75941;SDS011;64622;46.220;19.878;2023-07-29T04:33:55;8.23;;;2.95;;
75941;SDS011;64622;46.220;19.878;2023-07-29T04:36:22;8.17;;;2.90;;
75941;SDS011;64622;46.220;19.878;2023-07-29T04:38:48;8.55;;;2.92;;
75941;SDS011;64622;46.220;19.878;2023-07-29T04:41:15;8.82;;;3.08;;
75941;SDS011;64622;46.220;19.878;2023-07-29T04:43:41;14.52;;;3.33;;
75941;SDS011;64622;46.220;19.878;2023-07-29T04:46:08;8.48;;;3.17;;
75941;SDS011;64622;46.220;19.878;2023-07-29T04:48:35;10.03;;;2.63;;
75941;SDS011;64622;46.220;19.878;2023-07-29T04:51:01;8.10;;;2.83;;
75941;SDS011;64622;46.220;19.878;2023-07-29T04:53:28;10.52;;;3.30;;
75941;SDS011;64622;46.220;19.878;2023-07-29T04:55:55;9.15;;;2.85;;
75941;SDS011;64622;46.220;19.878;2023-07-29T04:58:21;8.63;;;2.97;;
75941;SDS011;64622;46.220;19.878;2023-07-29T05:00:48;13.27;;;2.97;;
75941;SDS011;64622;46.220;19.878;2023-07-29T05:03:15;10.70;;;3.05;;
75941;SDS011;64622;46.220;19.878;2023-07-29T05:05:42;11.52;;;3.12;;
75941;SDS011;64622;46.220;19.878;2023-07-29T05:08:09;9.73;;;2.60;;
75941;SDS011;64622;46.220;19.878;2023-07-29T05:10:35;7.43;;;2.55;;
75941;SDS011;64622;46.220;19.878;2023-07-29T05:13:02;10.33;;;2.50;;
75941;SDS011;64622;46.220;19.878;2023-07-29T05:15:29;7.07;;;2.60;;
75941;SDS011;64622;46.220;19.878;2023-07-29T05:17:55;10.07;;;2.72;;
75941;SDS011;64622;46.220;19.878;2023-07-29T05:20:22;9.02;;;2.55;;
75941;SDS011;64622;46.220;19.878;2023-07-29T05:22:49;8.93;;;2.45;;
75941;SDS011;64622;46.220;19.878;2023-07-29T05:25:16;10.80;;;2.50;;
75941;SDS011;64622;46.220;19.878;2023-07-29T05:27:43;7.90;;;2.53;;
75941;SDS011;64622;46.220;19.878;2023-07-29T05:30:09;8.07;;;2.50;;
75941;SDS011;64622;46.220;19.878;2023-07-29T05:32:36;10.15;;;3.20;;
75941;SDS011;64622;46.220;19.878;2023-07-29T05:35:03;7.97;;;2.42;;
75941;SDS011;64622;46.220;19.878;2023-07-29T05:37:32;10.17;;;2.70;;
75941;SDS011;64622;46.220;19.878;2023-07-29T05:39:59;9.80;;;2.92;;
75941;SDS011;64622;46.220;19.878;2023-07-29T05:42:26;9.48;;;2.70;;
75941;SDS011;64622;46.220;19.878;2023-07-29T05:44:53;7.65;;;2.22;;
75941;SDS011;64622;46.220;19.878;2023-07-29T05:47:20;8.57;;;2.53;;
75941;SDS011;64622;46.220;19.878;2023-07-29T05:49:47;11.73;;;2.47;;
75941;SDS011;64622;46.220;19.878;2023-07-29T05:52:13;8.70;;;2.20;;
75941;SDS011;64622;46.220;19.878;2023-07-29T05:54:41;9.05;;;2.65;;
75941;SDS011;64622;46.220;19.878;2023-07-29T05:57:09;9.32;;;2.47;;
75941;SDS011;64622;46.220;19.878;2023-07-29T05:59:36;9.18;;;2.10;;
75941;SDS011;64622;46.220;19.878;2023-07-29T06:02:03;7.40;;;2.30;;
75941;SDS011;64622;46.220;19.878;2023-07-29T06:04:29;7.53;;;2.42;;
75941;SDS011;64622;46.220;19.878;2023-07-29T06:06:56;8.75;;;2.25;;
75941;SDS011;64622;46.220;19.878;2023-07-29T06:09:23;9.18;;;2.30;;
75941;SDS011;64622;46.220;19.878;2023-07-29T06:11:51;8.95;;;2.33;;
75941;SDS011;64622;46.220;19.878;2023-07-29T06:14:18;8.87;;;2.40;;
75941;SDS011;64622;46.220;19.878;2023-07-29T06:16:44;7.85;;;2.17;;
75941;SDS011;64622;46.220;19.878;2023-07-29T06:19:11;8.70;;;2.20;;
75941;SDS011;64622;46.220;19.878;2023-07-29T06:21:39;68.25;;;5.80;;
75941;SDS011;64622;46.220;19.878;2023-07-29T06:24:06;14.35;;;2.53;;
75941;SDS011;64622;46.220;19.878;2023-07-29T06:26:33;91.50;;;8.60;;
75941;SDS011;64622;46.220;19.878;2023-07-29T06:28:59;11.32;;;2.30;;
75941;SDS011;64622;46.220;19.878;2023-07-29T06:31:25;7.72;;;2.00;;
75941;SDS011;64622;46.220;19.878;2023-07-29T06:33:52;9.60;;;2.08;;
75941;SDS011;64622;46.220;19.878;2023-07-29T06:36:20;10.25;;;2.35;;
75941;SDS011;64622;46.220;19.878;2023-07-29T06:38:47;7.07;;;1.93;;
75941;SDS011;64622;46.220;19.878;2023-07-29T06:41:14;10.77;;;2.50;;
75941;SDS011;64622;46.220;19.878;2023-07-29T06:43:40;7.30;;;2.20;;
75941;SDS011;64622;46.220;19.878;2023-07-29T06:46:07;8.27;;;2.10;;
75941;SDS011;64622;46.220;19.878;2023-07-29T06:48:34;9.50;;;2.30;;
75941;SDS011;64622;46.220;19.878;2023-07-29T06:51:00;11.00;;;2.33;;
75941;SDS011;64622;46.220;19.878;2023-07-29T06:53:28;9.93;;;2.10;;
75941;SDS011;64622;46.220;19.878;2023-07-29T06:55:55;9.85;;;2.08;;
75941;SDS011;64622;46.220;19.878;2023-07-29T06:58:22;8.38;;;2.10;;
75941;SDS011;64622;46.220;19.878;2023-07-29T07:00:48;7.22;;;1.90;;
75941;SDS011;64622;46.220;19.878;2023-07-29T07:03:15;7.00;;;2.00;;
75941;SDS011;64622;46.220;19.878;2023-07-29T07:05:42;7.32;;;2.10;;
75941;SDS011;64622;46.220;19.878;2023-07-29T07:08:08;9.13;;;2.10;;
75941;SDS011;64622;46.220;19.878;2023-07-29T07:10:35;8.32;;;2.00;;
75941;SDS011;64622;46.220;19.878;2023-07-29T07:13:01;10.05;;;2.10;;
75941;SDS011;64622;46.220;19.878;2023-07-29T07:15:28;7.83;;;1.77;;
75941;SDS011;64622;46.220;19.878;2023-07-29T07:17:55;8.98;;;2.00;;
75941;SDS011;64622;46.220;19.878;2023-07-29T07:20:21;9.77;;;1.58;;
75941;SDS011;64622;46.220;19.878;2023-07-29T07:22:48;10.52;;;2.42;;
75941;SDS011;64622;46.220;19.878;2023-07-29T07:25:15;8.63;;;2.00;;
75941;SDS011;64622;46.220;19.878;2023-07-29T07:27:41;9.10;;;2.03;;
75941;SDS011;64622;46.220;19.878;2023-07-29T07:30:07;13.68;;;2.22;;
75941;SDS011;64622;46.220;19.878;2023-07-29T07:32:34;9.30;;;2.05;;
75941;SDS011;64622;46.220;19.878;2023-07-29T07:35:01;10.35;;;2.28;;
75941;SDS011;64622;46.220;19.878;2023-07-29T07:37:27;8.80;;;2.33;;
75941;SDS011;64622;46.220;19.878;2023-07-29T07:39:54;8.90;;;1.93;;
75941;SDS011;64622;46.220;19.878;2023-07-29T07:42:21;7.57;;;1.90;;
75941;SDS011;64622;46.220;19.878;2023-07-29T07:44:47;7.70;;;1.87;;
75941;SDS011;64622;46.220;19.878;2023-07-29T07:47:14;8.68;;;2.33;;
75941;SDS011;64622;46.220;19.878;2023-07-29T07:49:40;8.02;;;2.20;;
75941;SDS011;64622;46.220;19.878;2023-07-29T07:52:07;7.80;;;2.40;;
75941;SDS011;64622;46.220;19.878;2023-07-29T07:54:34;7.03;;;2.20;;
75941;SDS011;64622;46.220;19.878;2023-07-29T07:57:00;9.52;;;2.30;;
75941;SDS011;64622;46.220;19.878;2023-07-29T07:59:27;7.85;;;1.83;;
75941;SDS011;64622;46.220;19.878;2023-07-29T08:01:53;8.02;;;1.67;;
75941;SDS011;64622;46.220;19.878;2023-07-29T08:04:20;10.27;;;1.90;;
75941;SDS011;64622;46.220;19.878;2023-07-29T08:06:47;7.43;;;1.90;;
75941;SDS011;64622;46.220;19.878;2023-07-29T08:09:13;7.57;;;1.90;;
75941;SDS011;64622;46.220;19.878;2023-07-29T08:11:41;6.90;;;1.77;;
75941;SDS011;64622;46.220;19.878;2023-07-29T08:14:07;7.55;;;1.75;;
75941;SDS011;64622;46.220;19.878;2023-07-29T08:16:34;7.67;;;2.00;;
75941;SDS011;64622;46.220;19.878;2023-07-29T08:19:01;8.02;;;1.67;;
75941;SDS011;64622;46.220;19.878;2023-07-29T08:21:27;6.37;;;1.48;;
75941;SDS011;64622;46.220;19.878;2023-07-29T08:23:53;10.50;;;2.12;;
75941;SDS011;64622;46.220;19.878;2023-07-29T08:26:20;8.68;;;1.80;;
75941;SDS011;64622;46.220;19.878;2023-07-29T08:28:48;11.47;;;2.27;;
75941;SDS011;64622;46.220;19.878;2023-07-29T08:31:14;31.95;;;2.85;;
75941;SDS011;64622;46.220;19.878;2023-07-29T08:33:41;8.63;;;2.10;;
75941;SDS011;64622;46.220;19.878;2023-07-29T08:36:07;8.18;;;1.80;;
75941;SDS011;64622;46.220;19.878;2023-07-29T08:38:34;6.62;;;1.50;;
75941;SDS011;64622;46.220;19.878;2023-07-29T08:41:13;6.87;;;1.90;;
75941;SDS011;64622;46.220;19.878;2023-07-29T08:44:30;9.05;;;1.90;;
75941;SDS011;64622;46.220;19.878;2023-07-29T08:46:35;6.85;;;1.67;;
75941;SDS011;64622;46.220;19.878;2023-07-29T08:49:01;7.28;;;1.83;;
75941;SDS011;64622;46.220;19.878;2023-07-29T08:51:29;7.20;;;1.77;;
75941;SDS011;64622;46.220;19.878;2023-07-29T08:53:58;13.87;;;2.03;;
75941;SDS011;64622;46.220;19.878;2023-07-29T08:56:25;8.13;;;1.90;;
75941;SDS011;64622;46.220;19.878;2023-07-29T08:58:51;10.02;;;1.77;;
75941;SDS011;64622;46.220;19.878;2023-07-29T09:01:19;7.37;;;1.87;;
75941;SDS011;64622;46.220;19.878;2023-07-29T09:03:45;6.85;;;1.70;;
75941;SDS011;64622;46.220;19.878;2023-07-29T09:06:12;8.20;;;1.80;;
75941;SDS011;64622;46.220;19.878;2023-07-29T09:08:41;7.43;;;1.65;;
75941;SDS011;64622;46.220;19.878;2023-07-29T09:11:07;7.62;;;1.80;;
75941;SDS011;64622;46.220;19.878;2023-07-29T09:13:34;8.73;;;1.70;;
75941;SDS011;64622;46.220;19.878;2023-07-29T09:16:01;5.82;;;1.48;;
75941;SDS011;64622;46.220;19.878;2023-07-29T09:18:27;9.57;;;3.13;;
75941;SDS011;64622;46.220;19.878;2023-07-29T09:20:54;10.13;;;3.78;;
75941;SDS011;64622;46.220;19.878;2023-07-29T09:23:25;7.28;;;1.70;;
75941;SDS011;64622;46.220;19.878;2023-07-29T09:26:02;9.75;;;2.22;;
75941;SDS011;64622;46.220;19.878;2023-07-29T09:28:36;9.00;;;1.85;;
75941;SDS011;64622;46.220;19.878;2023-07-29T09:31:04;10.27;;;2.23;;
75941;SDS011;64622;46.220;19.878;2023-07-29T09:33:34;8.15;;;1.50;;
75941;SDS011;64622;46.220;19.878;2023-07-29T09:36:09;7.95;;;1.83;;
75941;SDS011;64622;46.220;19.878;2023-07-29T09:38:36;9.05;;;1.75;;
75941;SDS011;64622;46.220;19.878;2023-07-29T09:41:03;6.70;;;1.83;;
75941;SDS011;64622;46.220;19.878;2023-07-29T09:43:30;6.27;;;1.80;;
75941;SDS011;64622;46.220;19.878;2023-07-29T09:46:01;7.40;;;1.90;;
75941;SDS011;64622;46.220;19.878;2023-07-29T09:48:32;8.80;;;1.60;;
75941;SDS011;64622;46.220;19.878;2023-07-29T09:51:09;7.50;;;1.83;;
75941;SDS011;64622;46.220;19.878;2023-07-29T09:53:43;7.37;;;2.10;;
75941;SDS011;64622;46.220;19.878;2023-07-29T09:56:12;9.60;;;1.73;;
75941;SDS011;64622;46.220;19.878;2023-07-29T09:58:40;8.77;;;1.95;;
75941;SDS011;64622;46.220;19.878;2023-07-29T10:01:09;11.73;;;2.25;;
75941;SDS011;64622;46.220;19.878;2023-07-29T10:03:37;7.57;;;1.90;;
75941;SDS011;64622;46.220;19.878;2023-07-29T10:06:04;8.07;;;1.90;;
75941;SDS011;64622;46.220;19.878;2023-07-29T10:08:32;7.67;;;2.20;;
75941;SDS011;64622;46.220;19.878;2023-07-29T10:11:02;8.40;;;2.28;;
75941;SDS011;64622;46.220;19.878;2023-07-29T10:13:28;9.80;;;2.10;;
75941;SDS011;64622;46.220;19.878;2023-07-29T10:15:55;6.80;;;2.03;;
75941;SDS011;64622;46.220;19.878;2023-07-29T10:18:24;8.13;;;2.05;;
75941;SDS011;64622;46.220;19.878;2023-07-29T10:20:51;7.70;;;2.10;;
75941;SDS011;64622;46.220;19.878;2023-07-29T10:23:20;8.65;;;2.17;;
75941;SDS011;64622;46.220;19.878;2023-07-29T10:25:59;7.20;;;1.98;;
75941;SDS011;64622;46.220;19.878;2023-07-29T10:28:32;6.75;;;1.52;;
75941;SDS011;64622;46.220;19.878;2023-07-29T10:31:02;9.13;;;2.03;;
75941;SDS011;64622;46.220;19.878;2023-07-29T10:33:31;8.53;;;1.97;;
75941;SDS011;64622;46.220;19.878;2023-07-29T10:35:59;7.75;;;1.98;;
75941;SDS011;64622;46.220;19.878;2023-07-29T10:38:27;6.60;;;1.65;;
75941;SDS011;64622;46.220;19.878;2023-07-29T10:40:55;8.43;;;1.90;;
75941;SDS011;64622;46.220;19.878;2023-07-29T10:45:52;7.33;;;1.93;;
75941;SDS011;64622;46.220;19.878;2023-07-29T10:53:52;7.62;;;1.70;;
75941;SDS011;64622;46.220;19.878;2023-07-29T10:56:27;7.97;;;2.00;;
75941;SDS011;64622;46.220;19.878;2023-07-29T10:58:56;7.40;;;2.10;;
75941;SDS011;64622;46.220;19.878;2023-07-29T11:01:28;7.30;;;1.73;;
75941;SDS011;64622;46.220;19.878;2023-07-29T11:10:06;6.60;;;1.80;;
75941;SDS011;64622;46.220;19.878;2023-07-29T11:15:12;7.07;;;2.05;;
75941;SDS011;64622;46.220;19.878;2023-07-29T11:17:42;7.75;;;2.15;;
75941;SDS011;64622;46.220;19.878;2023-07-29T11:20:14;10.15;;;2.55;;
75941;SDS011;64622;46.220;19.878;2023-07-29T11:22:42;7.40;;;1.75;;
75941;SDS011;64622;46.220;19.878;2023-07-29T11:25:09;8.97;;;2.43;;
75941;SDS011;64622;46.220;19.878;2023-07-29T11:27:38;9.30;;;2.10;;
75941;SDS011;64622;46.220;19.878;2023-07-29T11:30:07;7.72;;;2.37;;
75941;SDS011;64622;46.220;19.878;2023-07-29T11:32:35;9.30;;;2.60;;
75941;SDS011;64622;46.220;19.878;2023-07-29T11:35:05;9.60;;;2.60;;
75941;SDS011;64622;46.220;19.878;2023-07-29T11:37:37;8.73;;;2.67;;
75941;SDS011;64622;46.220;19.878;2023-07-29T11:40:05;7.53;;;2.10;;
75941;SDS011;64622;46.220;19.878;2023-07-29T11:42:33;7.60;;;2.20;;
75941;SDS011;64622;46.220;19.878;2023-07-29T11:45:00;10.07;;;2.72;;
75941;SDS011;64622;46.220;19.878;2023-07-29T11:47:29;10.07;;;2.37;;
75941;SDS011;64622;46.220;19.878;2023-07-29T11:49:58;7.80;;;2.00;;
75941;SDS011;64622;46.220;19.878;2023-07-29T11:52:27;6.78;;;1.98;;
75941;SDS011;64622;46.220;19.878;2023-07-29T11:54:54;9.30;;;2.22;;
75941;SDS011;64622;46.220;19.878;2023-07-29T11:57:21;8.20;;;2.33;;
75941;SDS011;64622;46.220;19.878;2023-07-29T11:59:50;6.87;;;2.10;;
75941;SDS011;64622;46.220;19.878;2023-07-29T12:02:17;8.50;;;2.30;;
75941;SDS011;64622;46.220;19.878;2023-07-29T12:04:46;8.27;;;2.47;;
75941;SDS011;64622;46.220;19.878;2023-07-29T12:07:14;8.60;;;3.20;;
75941;SDS011;64622;46.220;19.878;2023-07-29T12:09:42;8.13;;;2.58;;
75941;SDS011;64622;46.220;19.878;2023-07-29T12:12:10;8.10;;;2.60;;
75941;SDS011;64622;46.220;19.878;2023-07-29T12:14:36;7.50;;;2.80;;
75941;SDS011;64622;46.220;19.878;2023-07-29T12:17:04;10.90;;;2.65;;
75941;SDS011;64622;46.220;19.878;2023-07-29T12:19:35;7.93;;;2.55;;
75941;SDS011;64622;46.220;19.878;2023-07-29T12:22:03;10.35;;;2.42;;
75941;SDS011;64622;46.220;19.878;2023-07-29T12:24:32;8.55;;;3.15;;
75941;SDS011;64622;46.220;19.878;2023-07-29T12:26:59;7.73;;;2.80;;
75941;SDS011;64622;46.220;19.878;2023-07-29T12:29:26;8.50;;;2.90;;
75941;SDS011;64622;46.220;19.878;2023-07-29T12:31:57;8.50;;;2.60;;
75941;SDS011;64622;46.220;19.878;2023-07-29T12:34:26;8.43;;;2.10;;
75941;SDS011;64622;46.220;19.878;2023-07-29T12:36:58;7.95;;;2.22;;
75941;SDS011;64622;46.220;19.878;2023-07-29T12:39:26;7.93;;;2.50;;
75941;SDS011;64622;46.220;19.878;2023-07-29T12:41:55;8.57;;;2.03;;
75941;SDS011;64622;46.220;19.878;2023-07-29T12:44:25;8.55;;;2.30;;
75941;SDS011;64622;46.220;19.878;2023-07-29T12:46:53;9.02;;;2.65;;
75941;SDS011;64622;46.220;19.878;2023-07-29T12:49:19;8.15;;;2.50;;
75941;SDS011;64622;46.220;19.878;2023-07-29T12:51:46;10.63;;;2.67;;
75941;SDS011;64622;46.220;19.878;2023-07-29T12:54:13;8.50;;;2.90;;
75941;SDS011;64622;46.220;19.878;2023-07-29T12:56:39;11.35;;;2.40;;
75941;SDS011;64622;46.220;19.878;2023-07-29T12:59:06;9.73;;;2.25;;
75941;SDS011;64622;46.220;19.878;2023-07-29T13:01:32;13.52;;;2.20;;
75941;SDS011;64622;46.220;19.878;2023-07-29T13:03:59;12.03;;;2.37;;
75941;SDS011;64622;46.220;19.878;2023-07-29T13:06:26;8.63;;;2.20;;
75941;SDS011;64622;46.220;19.878;2023-07-29T13:08:52;7.68;;;1.92;;
75941;SDS011;64622;46.220;19.878;2023-07-29T13:11:19;16.87;;;2.40;;
75941;SDS011;64622;46.220;19.878;2023-07-29T13:13:46;7.87;;;2.17;;
75941;SDS011;64622;46.220;19.878;2023-07-29T13:16:12;6.47;;;1.80;;
75941;SDS011;64622;46.220;19.878;2023-07-29T13:18:39;7.43;;;2.20;;
75941;SDS011;64622;46.220;19.878;2023-07-29T13:21:07;7.62;;;2.00;;
75941;SDS011;64622;46.220;19.878;2023-07-29T13:23:33;9.30;;;2.05;;
75941;SDS011;64622;46.220;19.878;2023-07-29T13:26:00;8.18;;;2.40;;
75941;SDS011;64622;46.220;19.878;2023-07-29T13:28:27;10.67;;;2.67;;
75941;SDS011;64622;46.220;19.878;2023-07-29T13:30:54;7.45;;;2.10;;
75941;SDS011;64622;46.220;19.878;2023-07-29T13:33:20;9.02;;;2.10;;
75941;SDS011;64622;46.220;19.878;2023-07-29T13:35:47;7.45;;;2.12;;
75941;SDS011;64622;46.220;19.878;2023-07-29T13:38:14;9.23;;;2.20;;
75941;SDS011;64622;46.220;19.878;2023-07-29T13:40:40;6.30;;;1.07;;
75941;SDS011;64622;46.220;19.878;2023-07-29T13:43:07;7.72;;;2.12;;
75941;SDS011;64622;46.220;19.878;2023-07-29T13:45:34;8.23;;;2.30;;
75941;SDS011;64622;46.220;19.878;2023-07-29T13:48:00;7.57;;;2.08;;
75941;SDS011;64622;46.220;19.878;2023-07-29T13:50:27;10.00;;;2.30;;
75941;SDS011;64622;46.220;19.878;2023-07-29T13:52:54;8.17;;;2.20;;
75941;SDS011;64622;46.220;19.878;2023-07-29T13:55:20;9.18;;;2.40;;
75941;SDS011;64622;46.220;19.878;2023-07-29T13:57:47;7.62;;;2.28;;
75941;SDS011;64622;46.220;19.878;2023-07-29T14:00:14;7.25;;;1.90;;
75941;SDS011;64622;46.220;19.878;2023-07-29T14:02:41;7.05;;;2.17;;
75941;SDS011;64622;46.220;19.878;2023-07-29T14:05:09;8.93;;;2.27;;
75941;SDS011;64622;46.220;19.878;2023-07-29T14:07:38;9.40;;;2.00;;
75941;SDS011;64622;46.220;19.878;2023-07-29T14:10:04;7.20;;;1.98;;
75941;SDS011;64622;46.220;19.878;2023-07-29T14:12:31;6.62;;;1.90;;
75941;SDS011;64622;46.220;19.878;2023-07-29T14:14:58;9.25;;;2.12;;
75941;SDS011;64622;46.220;19.878;2023-07-29T14:17:25;8.57;;;2.00;;
75941;SDS011;64622;46.220;19.878;2023-07-29T14:19:51;7.57;;;1.85;;
75941;SDS011;64622;46.220;19.878;2023-07-29T14:22:18;8.32;;;2.12;;
75941;SDS011;64622;46.220;19.878;2023-07-29T14:24:44;8.05;;;2.00;;
75941;SDS011;64622;46.220;19.878;2023-07-29T14:27:11;8.85;;;1.95;;
75941;SDS011;64622;46.220;19.878;2023-07-29T14:29:37;6.73;;;1.60;;
75941;SDS011;64622;46.220;19.878;2023-07-29T14:32:04;6.30;;;1.65;;
75941;SDS011;64622;46.220;19.878;2023-07-29T14:34:31;7.12;;;1.80;;
75941;SDS011;64622;46.220;19.878;2023-07-29T14:36:57;7.05;;;2.10;;
75941;SDS011;64622;46.220;19.878;2023-07-29T14:39:24;7.75;;;1.92;;
75941;SDS011;64622;46.220;19.878;2023-07-29T14:41:51;7.40;;;1.70;;
75941;SDS011;64622;46.220;19.878;2023-07-29T14:44:17;7.00;;;1.80;;
75941;SDS011;64622;46.220;19.878;2023-07-29T14:46:44;10.63;;;1.50;;
75941;SDS011;64622;46.220;19.878;2023-07-29T14:49:10;10.50;;;1.87;;
75941;SDS011;64622;46.220;19.878;2023-07-29T14:51:37;7.22;;;1.75;;
75941;SDS011;64622;46.220;19.878;2023-07-29T14:54:04;9.73;;;1.93;;